sensor_id;sensor_type;location;lat;lon;timestamp;P1;durP1;ratioP1;P2;durP2;ratioP2
75417;SDS011;63997;52.112;5.420;2023-06-10T00:00:04;5.57;;;4.88;;
75417;SDS011;63997;52.112;5.420;2023-06-10T00:02:32;5.90;;;4.03;;
75417;SDS011;63997;52.112;5.420;2023-06-10T00:04:58;5.00;;;4.38;;
75417;SDS011;63997;52.112;5.420;2023-06-10T00:07:25;7.25;;;4.50;;
75417;SDS011;63997;52.112;5.420;2023-06-10T00:09:51;8.10;;;4.40;;
75417;SDS011;63997;52.112;5.420;2023-06-10T00:12:18;4.78;;;4.22;;
75417;SDS011;63997;52.112;5.420;2023-06-10T00:14:46;5.20;;;3.90;;
75417;SDS011;63997;52.112;5.420;2023-06-10T00:17:14;8.13;;;4.53;;
75417;SDS011;63997;52.112;5.420;2023-06-10T00:19:41;6.55;;;4.00;;
75417;SDS011;63997;52.112;5.420;2023-06-10T00:22:08;6.50;;;4.93;;
75417;SDS011;63997;52.112;5.420;2023-06-10T00:24:37;4.50;;;3.83;;
75417;SDS011;63997;52.112;5.420;2023-06-10T00:27:03;5.25;;;4.10;;
75417;SDS011;63997;52.112;5.420;2023-06-10T00:29:31;6.25;;;4.07;;
75417;SDS011;63997;52.112;5.420;2023-06-10T00:31:57;5.82;;;3.90;;
75417;SDS011;63997;52.112;5.420;2023-06-10T00:34:24;5.10;;;3.80;;
75417;SDS011;63997;52.112;5.420;2023-06-10T00:36:51;7.13;;;3.65;;
75417;SDS011;63997;52.112;5.420;2023-06-10T00:39:17;5.55;;;4.03;;
75417;SDS011;63997;52.112;5.420;2023-06-10T00:41:43;5.93;;;3.97;;
75417;SDS011;63997;52.112;5.420;2023-06-10T00:44:10;5.20;;;3.50;;
75417;SDS011;63997;52.112;5.420;2023-06-10T00:46:37;4.70;;;3.67;;
75417;SDS011;63997;52.112;5.420;2023-06-10T00:49:03;7.45;;;3.50;;
75417;SDS011;63997;52.112;5.420;2023-06-10T00:51:30;6.35;;;4.50;;
75417;SDS011;63997;52.112;5.420;2023-06-10T00:53:56;6.32;;;3.83;;
75417;SDS011;63997;52.112;5.420;2023-06-10T00:56:23;5.72;;;4.00;;
75417;SDS011;63997;52.112;5.420;2023-06-10T00:58:51;5.33;;;3.43;;
75417;SDS011;63997;52.112;5.420;2023-06-10T01:01:18;6.68;;;3.70;;
75417;SDS011;63997;52.112;5.420;2023-06-10T01:03:46;5.03;;;3.20;;
75417;SDS011;63997;52.112;5.420;2023-06-10T01:06:17;3.67;;;3.17;;
75417;SDS011;63997;52.112;5.420;2023-06-10T01:12:07;6.13;;;3.87;;
75417;SDS011;63997;52.112;5.420;2023-06-10T01:14:42;7.15;;;3.35;;
75417;SDS011;63997;52.112;5.420;2023-06-10T01:17:10;8.07;;;3.13;;
75417;SDS011;63997;52.112;5.420;2023-06-10T01:19:37;6.97;;;4.03;;
75417;SDS011;63997;52.112;5.420;2023-06-10T01:22:04;4.97;;;3.17;;
75417;SDS011;63997;52.112;5.420;2023-06-10T01:24:31;8.40;;;3.20;;
75417;SDS011;63997;52.112;5.420;2023-06-10T01:27:00;6.28;;;3.60;;
75417;SDS011;63997;52.112;5.420;2023-06-10T01:29:52;3.80;;;3.20;;
75417;SDS011;63997;52.112;5.420;2023-06-10T01:32:22;5.88;;;3.08;;
75417;SDS011;63997;52.112;5.420;2023-06-10T01:34:57;4.35;;;2.88;;
75417;SDS011;63997;52.112;5.420;2023-06-10T01:37:25;9.00;;;3.47;;
75417;SDS011;63997;52.112;5.420;2023-06-10T01:39:54;6.38;;;3.15;;
75417;SDS011;63997;52.112;5.420;2023-06-10T01:42:23;10.85;;;3.35;;
75417;SDS011;63997;52.112;5.420;2023-06-10T01:44:49;6.30;;;3.15;;
75417;SDS011;63997;52.112;5.420;2023-06-10T01:47:16;8.02;;;3.10;;
75417;SDS011;63997;52.112;5.420;2023-06-10T01:49:43;4.63;;;3.20;;
75417;SDS011;63997;52.112;5.420;2023-06-10T01:52:10;5.57;;;2.83;;
75417;SDS011;63997;52.112;5.420;2023-06-10T01:54:36;6.80;;;3.00;;
75417;SDS011;63997;52.112;5.420;2023-06-10T01:57:03;5.60;;;3.05;;
75417;SDS011;63997;52.112;5.420;2023-06-10T01:59:35;6.55;;;3.35;;
75417;SDS011;63997;52.112;5.420;2023-06-10T02:02:02;5.47;;;3.27;;
75417;SDS011;63997;52.112;5.420;2023-06-10T02:04:29;8.10;;;3.38;;
75417;SDS011;63997;52.112;5.420;2023-06-10T02:06:56;7.40;;;3.58;;
75417;SDS011;63997;52.112;5.420;2023-06-10T02:09:22;6.53;;;3.35;;
75417;SDS011;63997;52.112;5.420;2023-06-10T02:11:49;6.97;;;3.25;;
75417;SDS011;63997;52.112;5.420;2023-06-10T02:14:15;6.97;;;3.63;;
75417;SDS011;63997;52.112;5.420;2023-06-10T02:16:42;4.60;;;2.90;;
75417;SDS011;63997;52.112;5.420;2023-06-10T02:19:11;6.13;;;3.35;;
75417;SDS011;63997;52.112;5.420;2023-06-10T02:21:38;5.55;;;3.10;;
75417;SDS011;63997;52.112;5.420;2023-06-10T02:24:05;4.78;;;2.85;;
75417;SDS011;63997;52.112;5.420;2023-06-10T02:26:32;6.50;;;3.60;;
75417;SDS011;63997;52.112;5.420;2023-06-10T02:28:58;7.63;;;3.33;;
75417;SDS011;63997;52.112;5.420;2023-06-10T02:31:24;7.60;;;3.63;;
75417;SDS011;63997;52.112;5.420;2023-06-10T02:33:51;5.63;;;3.38;;
75417;SDS011;63997;52.112;5.420;2023-06-10T02:36:18;4.32;;;3.30;;
75417;SDS011;63997;52.112;5.420;2023-06-10T02:38:44;4.10;;;3.03;;
75417;SDS011;63997;52.112;5.420;2023-06-10T02:41:11;4.55;;;3.40;;
75417;SDS011;63997;52.112;5.420;2023-06-10T02:43:37;5.75;;;3.33;;
75417;SDS011;63997;52.112;5.420;2023-06-10T02:46:04;6.40;;;3.03;;
75417;SDS011;63997;52.112;5.420;2023-06-10T02:48:30;6.50;;;3.30;;
75417;SDS011;63997;52.112;5.420;2023-06-10T02:50:57;6.33;;;3.10;;
75417;SDS011;63997;52.112;5.420;2023-06-10T02:53:23;6.63;;;3.20;;
75417;SDS011;63997;52.112;5.420;2023-06-10T02:55:49;6.03;;;3.80;;
75417;SDS011;63997;52.112;5.420;2023-06-10T02:58:16;5.20;;;3.22;;
75417;SDS011;63997;52.112;5.420;2023-06-10T03:00:42;6.07;;;2.97;;
75417;SDS011;63997;52.112;5.420;2023-06-10T03:03:09;6.73;;;3.57;;
75417;SDS011;63997;52.112;5.420;2023-06-10T03:05:36;5.32;;;3.35;;
75417;SDS011;63997;52.112;5.420;2023-06-10T03:08:03;10.27;;;4.00;;
75417;SDS011;63997;52.112;5.420;2023-06-10T03:10:29;9.40;;;3.50;;
75417;SDS011;63997;52.112;5.420;2023-06-10T03:12:56;4.80;;;3.55;;
75417;SDS011;63997;52.112;5.420;2023-06-10T03:15:22;5.00;;;3.63;;
75417;SDS011;63997;52.112;5.420;2023-06-10T03:17:50;6.68;;;3.80;;
75417;SDS011;63997;52.112;5.420;2023-06-10T03:20:17;8.02;;;3.08;;
75417;SDS011;63997;52.112;5.420;2023-06-10T03:22:44;6.55;;;2.95;;
75417;SDS011;63997;52.112;5.420;2023-06-10T03:25:10;6.15;;;4.20;;
75417;SDS011;63997;52.112;5.420;2023-06-10T03:27:41;7.93;;;3.63;;
75417;SDS011;63997;52.112;5.420;2023-06-10T03:30:08;4.95;;;3.63;;
75417;SDS011;63997;52.112;5.420;2023-06-10T03:32:35;7.68;;;3.88;;
75417;SDS011;63997;52.112;5.420;2023-06-10T03:35:02;6.65;;;3.67;;
75417;SDS011;63997;52.112;5.420;2023-06-10T03:37:29;5.40;;;3.47;;
75417;SDS011;63997;52.112;5.420;2023-06-10T03:39:56;8.03;;;3.53;;
75417;SDS011;63997;52.112;5.420;2023-06-10T03:42:22;4.47;;;3.45;;
75417;SDS011;63997;52.112;5.420;2023-06-10T03:44:48;7.25;;;3.65;;
75417;SDS011;63997;52.112;5.420;2023-06-10T03:47:15;8.07;;;4.00;;
75417;SDS011;63997;52.112;5.420;2023-06-10T03:49:42;6.03;;;3.72;;
75417;SDS011;63997;52.112;5.420;2023-06-10T03:52:08;6.60;;;3.37;;
75417;SDS011;63997;52.112;5.420;2023-06-10T03:54:35;9.45;;;3.95;;
75417;SDS011;63997;52.112;5.420;2023-06-10T03:57:01;4.80;;;3.35;;
75417;SDS011;63997;52.112;5.420;2023-06-10T03:59:29;7.60;;;3.45;;
75417;SDS011;63997;52.112;5.420;2023-06-10T04:01:55;9.77;;;3.90;;
75417;SDS011;63997;52.112;5.420;2023-06-10T04:04:22;6.97;;;3.67;;
75417;SDS011;63997;52.112;5.420;2023-06-10T04:06:49;7.70;;;3.80;;
75417;SDS011;63997;52.112;5.420;2023-06-10T04:09:16;9.15;;;4.15;;
75417;SDS011;63997;52.112;5.420;2023-06-10T04:11:43;7.45;;;4.22;;
75417;SDS011;63997;52.112;5.420;2023-06-10T04:14:09;6.65;;;4.03;;
75417;SDS011;63997;52.112;5.420;2023-06-10T04:16:36;4.40;;;3.10;;
75417;SDS011;63997;52.112;5.420;2023-06-10T04:19:02;5.60;;;3.70;;
75417;SDS011;63997;52.112;5.420;2023-06-10T04:21:29;5.90;;;3.97;;
75417;SDS011;63997;52.112;5.420;2023-06-10T04:23:55;6.50;;;3.60;;
75417;SDS011;63997;52.112;5.420;2023-06-10T04:26:22;4.90;;;3.83;;
75417;SDS011;63997;52.112;5.420;2023-06-10T04:28:48;5.40;;;3.60;;
75417;SDS011;63997;52.112;5.420;2023-06-10T04:31:15;7.22;;;4.20;;
75417;SDS011;63997;52.112;5.420;2023-06-10T04:33:41;7.70;;;4.00;;
75417;SDS011;63997;52.112;5.420;2023-06-10T04:36:08;6.47;;;3.90;;
75417;SDS011;63997;52.112;5.420;2023-06-10T04:38:34;7.85;;;4.30;;
75417;SDS011;63997;52.112;5.420;2023-06-10T04:41:01;9.13;;;4.10;;
75417;SDS011;63997;52.112;5.420;2023-06-10T04:43:28;7.80;;;4.20;;
75417;SDS011;63997;52.112;5.420;2023-06-10T04:45:55;10.68;;;4.25;;
75417;SDS011;63997;52.112;5.420;2023-06-10T04:48:22;9.25;;;4.13;;
75417;SDS011;63997;52.112;5.420;2023-06-10T04:50:50;5.53;;;3.90;;
75417;SDS011;63997;52.112;5.420;2023-06-10T04:53:16;12.50;;;4.30;;
75417;SDS011;63997;52.112;5.420;2023-06-10T04:55:43;6.20;;;4.30;;
75417;SDS011;63997;52.112;5.420;2023-06-10T04:58:10;7.03;;;4.07;;
75417;SDS011;63997;52.112;5.420;2023-06-10T05:00:36;8.13;;;4.85;;
75417;SDS011;63997;52.112;5.420;2023-06-10T05:03:03;7.10;;;4.75;;
75417;SDS011;63997;52.112;5.420;2023-06-10T05:05:29;6.03;;;4.20;;
75417;SDS011;63997;52.112;5.420;2023-06-10T05:07:56;5.85;;;4.38;;
75417;SDS011;63997;52.112;5.420;2023-06-10T05:10:22;9.50;;;4.25;;
75417;SDS011;63997;52.112;5.420;2023-06-10T05:12:49;8.80;;;4.18;;
75417;SDS011;63997;52.112;5.420;2023-06-10T05:15:15;7.05;;;4.47;;
75417;SDS011;63997;52.112;5.420;2023-06-10T05:17:42;7.77;;;4.00;;
75417;SDS011;63997;52.112;5.420;2023-06-10T05:20:08;6.68;;;3.83;;
75417;SDS011;63997;52.112;5.420;2023-06-10T05:22:35;7.60;;;4.43;;
75417;SDS011;63997;52.112;5.420;2023-06-10T05:25:02;6.18;;;3.88;;
75417;SDS011;63997;52.112;5.420;2023-06-10T05:27:29;6.07;;;4.32;;
75417;SDS011;63997;52.112;5.420;2023-06-10T05:29:55;10.10;;;4.13;;
75417;SDS011;63997;52.112;5.420;2023-06-10T05:32:22;8.60;;;4.53;;
75417;SDS011;63997;52.112;5.420;2023-06-10T05:34:49;5.75;;;3.72;;
75417;SDS011;63997;52.112;5.420;2023-06-10T05:37:15;5.75;;;4.15;;
75417;SDS011;63997;52.112;5.420;2023-06-10T05:39:41;9.32;;;4.10;;
75417;SDS011;63997;52.112;5.420;2023-06-10T05:42:08;9.70;;;4.37;;
75417;SDS011;63997;52.112;5.420;2023-06-10T05:44:35;10.23;;;4.68;;
75417;SDS011;63997;52.112;5.420;2023-06-10T05:47:01;7.18;;;4.60;;
75417;SDS011;63997;52.112;5.420;2023-06-10T05:49:28;7.22;;;3.97;;
75417;SDS011;63997;52.112;5.420;2023-06-10T05:51:54;11.32;;;4.07;;
75417;SDS011;63997;52.112;5.420;2023-06-10T05:54:22;7.37;;;4.40;;
75417;SDS011;63997;52.112;5.420;2023-06-10T05:56:48;7.05;;;3.75;;
75417;SDS011;63997;52.112;5.420;2023-06-10T05:59:15;7.55;;;3.83;;
75417;SDS011;63997;52.112;5.420;2023-06-10T06:01:41;5.53;;;4.35;;
75417;SDS011;63997;52.112;5.420;2023-06-10T06:04:08;6.63;;;3.88;;
75417;SDS011;63997;52.112;5.420;2023-06-10T06:06:35;9.47;;;4.40;;
75417;SDS011;63997;52.112;5.420;2023-06-10T06:09:01;8.73;;;4.88;;
75417;SDS011;63997;52.112;5.420;2023-06-10T06:11:28;8.18;;;4.28;;
75417;SDS011;63997;52.112;5.420;2023-06-10T06:13:55;6.15;;;3.90;;
75417;SDS011;63997;52.112;5.420;2023-06-10T06:16:22;5.35;;;4.07;;
75417;SDS011;63997;52.112;5.420;2023-06-10T06:18:48;6.47;;;4.10;;
75417;SDS011;63997;52.112;5.420;2023-06-10T06:21:15;5.10;;;4.28;;
75417;SDS011;63997;52.112;5.420;2023-06-10T06:23:41;5.82;;;4.35;;
75417;SDS011;63997;52.112;5.420;2023-06-10T06:26:08;7.47;;;3.80;;
75417;SDS011;63997;52.112;5.420;2023-06-10T06:28:34;6.68;;;3.90;;
75417;SDS011;63997;52.112;5.420;2023-06-10T06:31:01;6.83;;;4.20;;
75417;SDS011;63997;52.112;5.420;2023-06-10T06:33:27;8.52;;;4.47;;
75417;SDS011;63997;52.112;5.420;2023-06-10T06:35:55;8.23;;;4.13;;
75417;SDS011;63997;52.112;5.420;2023-06-10T06:38:21;6.55;;;4.00;;
75417;SDS011;63997;52.112;5.420;2023-06-10T06:40:48;5.45;;;3.80;;
75417;SDS011;63997;52.112;5.420;2023-06-10T06:43:14;6.30;;;4.20;;
75417;SDS011;63997;52.112;5.420;2023-06-10T06:45:40;6.50;;;4.20;;
75417;SDS011;63997;52.112;5.420;2023-06-10T06:48:07;4.68;;;3.80;;
75417;SDS011;63997;52.112;5.420;2023-06-10T06:50:33;5.93;;;3.88;;
75417;SDS011;63997;52.112;5.420;2023-06-10T06:53:00;8.43;;;4.10;;
75417;SDS011;63997;52.112;5.420;2023-06-10T06:55:26;8.20;;;4.97;;
75417;SDS011;63997;52.112;5.420;2023-06-10T06:57:53;13.52;;;4.55;;
75417;SDS011;63997;52.112;5.420;2023-06-10T07:00:19;5.93;;;4.00;;
75417;SDS011;63997;52.112;5.420;2023-06-10T07:02:46;5.93;;;3.90;;
75417;SDS011;63997;52.112;5.420;2023-06-10T07:05:12;4.95;;;4.40;;
75417;SDS011;63997;52.112;5.420;2023-06-10T07:07:39;4.23;;;3.73;;
75417;SDS011;63997;52.112;5.420;2023-06-10T07:10:06;6.95;;;3.95;;
75417;SDS011;63997;52.112;5.420;2023-06-10T07:12:33;4.82;;;4.05;;
75417;SDS011;63997;52.112;5.420;2023-06-10T07:14:59;5.53;;;4.20;;
75417;SDS011;63997;52.112;5.420;2023-06-10T07:17:25;8.18;;;3.90;;
75417;SDS011;63997;52.112;5.420;2023-06-10T07:19:53;6.63;;;3.53;;
75417;SDS011;63997;52.112;5.420;2023-06-10T07:22:23;6.18;;;3.55;;
75417;SDS011;63997;52.112;5.420;2023-06-10T07:24:49;10.20;;;4.18;;
75417;SDS011;63997;52.112;5.420;2023-06-10T07:27:17;6.40;;;3.80;;
75417;SDS011;63997;52.112;5.420;2023-06-10T07:29:44;7.10;;;3.60;;
75417;SDS011;63997;52.112;5.420;2023-06-10T07:32:10;4.43;;;3.70;;
75417;SDS011;63997;52.112;5.420;2023-06-10T07:34:37;7.03;;;3.42;;
75417;SDS011;63997;52.112;5.420;2023-06-10T07:37:03;5.97;;;4.03;;
75417;SDS011;63997;52.112;5.420;2023-06-10T07:39:30;6.65;;;3.97;;
75417;SDS011;63997;52.112;5.420;2023-06-10T07:41:56;5.93;;;3.67;;
75417;SDS011;63997;52.112;5.420;2023-06-10T07:44:23;6.23;;;4.47;;
75417;SDS011;63997;52.112;5.420;2023-06-10T07:46:50;5.88;;;3.45;;
75417;SDS011;63997;52.112;5.420;2023-06-10T07:49:16;11.25;;;5.18;;
75417;SDS011;63997;52.112;5.420;2023-06-10T07:51:43;6.03;;;3.90;;
75417;SDS011;63997;52.112;5.420;2023-06-10T07:54:10;9.77;;;3.80;;
75417;SDS011;63997;52.112;5.420;2023-06-10T07:56:38;6.73;;;3.87;;
75417;SDS011;63997;52.112;5.420;2023-06-10T07:59:05;6.32;;;3.83;;
75417;SDS011;63997;52.112;5.420;2023-06-10T08:01:31;5.45;;;3.60;;
75417;SDS011;63997;52.112;5.420;2023-06-10T08:03:59;7.18;;;3.80;;
75417;SDS011;63997;52.112;5.420;2023-06-10T08:06:26;6.65;;;3.78;;
75417;SDS011;63997;52.112;5.420;2023-06-10T08:08:52;5.87;;;3.60;;
75417;SDS011;63997;52.112;5.420;2023-06-10T08:11:19;8.57;;;3.47;;
75417;SDS011;63997;52.112;5.420;2023-06-10T08:13:46;5.45;;;3.90;;
75417;SDS011;63997;52.112;5.420;2023-06-10T08:16:13;6.63;;;3.45;;
75417;SDS011;63997;52.112;5.420;2023-06-10T08:18:40;7.00;;;3.50;;
75417;SDS011;63997;52.112;5.420;2023-06-10T08:21:06;4.23;;;3.43;;
75417;SDS011;63997;52.112;5.420;2023-06-10T08:23:33;7.28;;;3.88;;
75417;SDS011;63997;52.112;5.420;2023-06-10T08:25:59;4.80;;;3.53;;
75417;SDS011;63997;52.112;5.420;2023-06-10T08:28:26;6.85;;;3.70;;
75417;SDS011;63997;52.112;5.420;2023-06-10T08:30:52;8.55;;;3.65;;
75417;SDS011;63997;52.112;5.420;2023-06-10T08:33:22;6.97;;;3.60;;
75417;SDS011;63997;52.112;5.420;2023-06-10T08:35:49;8.02;;;3.75;;
75417;SDS011;63997;52.112;5.420;2023-06-10T08:38:15;7.55;;;3.90;;
75417;SDS011;63997;52.112;5.420;2023-06-10T08:40:42;3.70;;;3.30;;
75417;SDS011;63997;52.112;5.420;2023-06-10T08:43:44;4.70;;;3.50;;
75417;SDS011;63997;52.112;5.420;2023-06-10T08:46:12;9.57;;;3.50;;
75417;SDS011;63997;52.112;5.420;2023-06-10T08:48:43;5.43;;;3.60;;
75417;SDS011;63997;52.112;5.420;2023-06-10T08:51:11;4.50;;;3.38;;
75417;SDS011;63997;52.112;5.420;2023-06-10T08:53:41;5.30;;;3.13;;
75417;SDS011;63997;52.112;5.420;2023-06-10T08:56:16;6.90;;;3.83;;
75417;SDS011;63997;52.112;5.420;2023-06-10T08:58:43;5.03;;;3.83;;
75417;SDS011;63997;52.112;5.420;2023-06-10T09:01:11;6.47;;;3.70;;
75417;SDS011;63997;52.112;5.420;2023-06-10T09:03:38;4.40;;;3.42;;
75417;SDS011;63997;52.112;5.420;2023-06-10T09:06:05;6.43;;;3.38;;
75417;SDS011;63997;52.112;5.420;2023-06-10T09:08:33;7.72;;;3.80;;
75417;SDS011;63997;52.112;5.420;2023-06-10T09:11:01;4.37;;;3.50;;
75417;SDS011;63997;52.112;5.420;2023-06-10T09:13:27;3.95;;;3.25;;
75417;SDS011;63997;52.112;5.420;2023-06-10T09:15:55;5.30;;;3.47;;
75417;SDS011;63997;52.112;5.420;2023-06-10T09:18:22;5.88;;;3.60;;
75417;SDS011;63997;52.112;5.420;2023-06-10T09:20:49;6.43;;;3.55;;
75417;SDS011;63997;52.112;5.420;2023-06-10T09:23:16;4.37;;;3.50;;
75417;SDS011;63997;52.112;5.420;2023-06-10T09:25:43;6.85;;;3.67;;
75417;SDS011;63997;52.112;5.420;2023-06-10T09:28:13;4.78;;;3.22;;
75417;SDS011;63997;52.112;5.420;2023-06-10T09:30:41;5.20;;;3.20;;
75417;SDS011;63997;52.112;5.420;2023-06-10T09:33:11;7.22;;;3.50;;
75417;SDS011;63997;52.112;5.420;2023-06-10T09:35:44;5.63;;;3.10;;
75417;SDS011;63997;52.112;5.420;2023-06-10T09:38:13;3.75;;;3.00;;
75417;SDS011;63997;52.112;5.420;2023-06-10T09:40:49;6.63;;;3.25;;
75417;SDS011;63997;52.112;5.420;2023-06-10T09:43:16;6.50;;;3.33;;
75417;SDS011;63997;52.112;5.420;2023-06-10T09:45:43;4.05;;;3.20;;
75417;SDS011;63997;52.112;5.420;2023-06-10T09:48:09;4.43;;;3.20;;
75417;SDS011;63997;52.112;5.420;2023-06-10T09:50:43;4.95;;;3.10;;
75417;SDS011;63997;52.112;5.420;2023-06-10T09:53:11;5.28;;;3.30;;
75417;SDS011;63997;52.112;5.420;2023-06-10T09:55:38;7.55;;;3.47;;
75417;SDS011;63997;52.112;5.420;2023-06-10T09:58:06;6.55;;;2.83;;
75417;SDS011;63997;52.112;5.420;2023-06-10T10:00:33;5.10;;;3.10;;
75417;SDS011;63997;52.112;5.420;2023-06-10T10:03:00;4.80;;;3.28;;
75417;SDS011;63997;52.112;5.420;2023-06-10T10:05:27;4.75;;;3.30;;
75417;SDS011;63997;52.112;5.420;2023-06-10T10:07:56;5.18;;;3.60;;
75417;SDS011;63997;52.112;5.420;2023-06-10T10:10:25;5.47;;;3.20;;
75417;SDS011;63997;52.112;5.420;2023-06-10T10:12:55;3.30;;;2.93;;
75417;SDS011;63997;52.112;5.420;2023-06-10T10:15:23;5.07;;;2.97;;
75417;SDS011;63997;52.112;5.420;2023-06-10T10:18:07;3.90;;;2.85;;
75417;SDS011;63997;52.112;5.420;2023-06-10T10:20:38;4.80;;;3.50;;
75417;SDS011;63997;52.112;5.420;2023-06-10T10:23:12;6.43;;;2.80;;
75417;SDS011;63997;52.112;5.420;2023-06-10T10:25:44;4.83;;;2.90;;
75417;SDS011;63997;52.112;5.420;2023-06-10T10:28:18;4.75;;;3.22;;
75417;SDS011;63997;52.112;5.420;2023-06-10T10:30:51;3.95;;;3.40;;
75417;SDS011;63997;52.112;5.420;2023-06-10T10:33:26;5.60;;;3.03;;
75417;SDS011;63997;52.112;5.420;2023-06-10T10:35:57;4.85;;;2.72;;
75417;SDS011;63997;52.112;5.420;2023-06-10T10:38:24;9.53;;;3.47;;
75417;SDS011;63997;52.112;5.420;2023-06-10T10:40:51;6.30;;;3.10;;
75417;SDS011;63997;52.112;5.420;2023-06-10T10:43:18;6.22;;;3.33;;
75417;SDS011;63997;52.112;5.420;2023-06-10T10:45:45;3.40;;;3.10;;
75417;SDS011;63997;52.112;5.420;2023-06-10T10:48:23;3.85;;;2.90;;
75417;SDS011;63997;52.112;5.420;2023-06-10T10:50:57;4.63;;;2.73;;
75417;SDS011;63997;52.112;5.420;2023-06-10T10:53:24;7.55;;;3.33;;
75417;SDS011;63997;52.112;5.420;2023-06-10T10:56:08;3.80;;;3.00;;
75417;SDS011;63997;52.112;5.420;2023-06-10T10:58:40;3.17;;;2.85;;
75417;SDS011;63997;52.112;5.420;2023-06-10T11:01:10;4.07;;;3.13;;
75417;SDS011;63997;52.112;5.420;2023-06-10T11:03:44;5.43;;;2.97;;
75417;SDS011;63997;52.112;5.420;2023-06-10T11:06:17;8.35;;;3.10;;
75417;SDS011;63997;52.112;5.420;2023-06-10T11:11:20;3.88;;;3.33;;
75417;SDS011;63997;52.112;5.420;2023-06-10T11:16:28;7.87;;;3.80;;
75417;SDS011;63997;52.112;5.420;2023-06-10T11:18:55;6.82;;;4.07;;
75417;SDS011;63997;52.112;5.420;2023-06-10T11:21:23;3.22;;;2.90;;
75417;SDS011;63997;52.112;5.420;2023-06-10T11:23:57;6.47;;;3.17;;
75417;SDS011;63997;52.112;5.420;2023-06-10T11:29:02;3.30;;;3.00;;
75417;SDS011;63997;52.112;5.420;2023-06-10T11:31:41;5.80;;;3.13;;
75417;SDS011;63997;52.112;5.420;2023-06-10T11:34:09;5.88;;;3.40;;
75417;SDS011;63997;52.112;5.420;2023-06-10T11:36:37;6.35;;;3.20;;
75417;SDS011;63997;52.112;5.420;2023-06-10T11:39:09;5.25;;;2.97;;
75417;SDS011;63997;52.112;5.420;2023-06-10T11:41:37;5.93;;;3.00;;
75417;SDS011;63997;52.112;5.420;2023-06-10T11:46:43;4.22;;;3.28;;
75417;SDS011;63997;52.112;5.420;2023-06-10T11:49:11;5.97;;;3.25;;
75417;SDS011;63997;52.112;5.420;2023-06-10T11:51:38;4.72;;;3.50;;
75417;SDS011;63997;52.112;5.420;2023-06-10T11:54:11;3.47;;;3.17;;
75417;SDS011;63997;52.112;5.420;2023-06-10T11:56:38;5.53;;;3.70;;
75417;SDS011;63997;52.112;5.420;2023-06-10T11:59:07;6.15;;;3.45;;
75417;SDS011;63997;52.112;5.420;2023-06-10T12:01:40;3.70;;;3.38;;
75417;SDS011;63997;52.112;5.420;2023-06-10T12:04:13;5.03;;;3.80;;
75417;SDS011;63997;52.112;5.420;2023-06-10T12:06:48;5.73;;;3.67;;
75417;SDS011;63997;52.112;5.420;2023-06-10T12:09:25;3.80;;;3.30;;
75417;SDS011;63997;52.112;5.420;2023-06-10T12:11:59;6.60;;;3.50;;
75417;SDS011;63997;52.112;5.420;2023-06-10T12:20:07;3.63;;;3.33;;
75417;SDS011;63997;52.112;5.420;2023-06-10T12:22:43;6.93;;;3.72;;
75417;SDS011;63997;52.112;5.420;2023-06-10T12:25:11;5.90;;;4.13;;
75417;SDS011;63997;52.112;5.420;2023-06-10T12:27:40;5.32;;;3.53;;
75417;SDS011;63997;52.112;5.420;2023-06-10T12:30:18;5.78;;;3.67;;
75417;SDS011;63997;52.112;5.420;2023-06-10T12:32:46;5.57;;;3.47;;
75417;SDS011;63997;52.112;5.420;2023-06-10T12:35:18;5.30;;;3.78;;
75417;SDS011;63997;52.112;5.420;2023-06-10T12:38:00;6.13;;;3.55;;
75417;SDS011;63997;52.112;5.420;2023-06-10T12:40:30;4.78;;;3.97;;
75417;SDS011;63997;52.112;5.420;2023-06-10T12:42:59;4.32;;;3.88;;
75417;SDS011;63997;52.112;5.420;2023-06-10T12:45:27;4.83;;;3.67;;
75417;SDS011;63997;52.112;5.420;2023-06-10T12:48:04;6.25;;;3.90;;
75417;SDS011;63997;52.112;5.420;2023-06-10T12:50:40;5.28;;;3.88;;
75417;SDS011;63997;52.112;5.420;2023-06-10T12:53:09;6.90;;;3.70;;
75417;SDS011;63997;52.112;5.420;2023-06-10T12:55:39;5.28;;;4.05;;
75417;SDS011;63997;52.112;5.420;2023-06-10T12:58:06;5.93;;;3.90;;
75417;SDS011;63997;52.112;5.420;2023-06-10T13:00:32;6.35;;;3.88;;
75417;SDS011;63997;52.112;5.420;2023-06-10T13:03:01;4.55;;;3.78;;
75417;SDS011;63997;52.112;5.420;2023-06-10T13:05:28;8.52;;;4.18;;
75417;SDS011;63997;52.112;5.420;2023-06-10T13:07:55;4.63;;;3.88;;
75417;SDS011;63997;52.112;5.420;2023-06-10T13:10:22;3.60;;;3.30;;
75417;SDS011;63997;52.112;5.420;2023-06-10T13:12:51;4.93;;;3.47;;
75417;SDS011;63997;52.112;5.420;2023-06-10T13:15:20;4.07;;;3.67;;
75417;SDS011;63997;52.112;5.420;2023-06-10T13:17:47;6.93;;;3.88;;
75417;SDS011;63997;52.112;5.420;2023-06-10T13:20:15;4.35;;;3.95;;
75417;SDS011;63997;52.112;5.420;2023-06-10T13:22:42;5.43;;;3.77;;
75417;SDS011;63997;52.112;5.420;2023-06-10T13:25:09;5.75;;;3.42;;
75417;SDS011;63997;52.112;5.420;2023-06-10T13:27:37;5.57;;;3.70;;
75417;SDS011;63997;52.112;5.420;2023-06-10T13:30:09;3.67;;;3.30;;
75417;SDS011;63997;52.112;5.420;2023-06-10T13:32:37;6.18;;;3.60;;
75417;SDS011;63997;52.112;5.420;2023-06-10T13:35:04;5.23;;;3.80;;
75417;SDS011;63997;52.112;5.420;2023-06-10T13:37:31;4.85;;;3.50;;
75417;SDS011;63997;52.112;5.420;2023-06-10T13:40:00;5.57;;;3.33;;
75417;SDS011;63997;52.112;5.420;2023-06-10T13:42:26;3.80;;;3.33;;
75417;SDS011;63997;52.112;5.420;2023-06-10T13:44:55;5.32;;;3.40;;
75417;SDS011;63997;52.112;5.420;2023-06-10T13:47:23;4.03;;;3.60;;
75417;SDS011;63997;52.112;5.420;2023-06-10T13:49:50;7.82;;;3.47;;
75417;SDS011;63997;52.112;5.420;2023-06-10T13:52:18;4.18;;;3.25;;
75417;SDS011;63997;52.112;5.420;2023-06-10T13:54:45;5.30;;;3.38;;
75417;SDS011;63997;52.112;5.420;2023-06-10T13:57:11;3.40;;;3.10;;
75417;SDS011;63997;52.112;5.420;2023-06-10T13:59:38;4.30;;;3.10;;
75417;SDS011;63997;52.112;5.420;2023-06-10T14:02:05;4.32;;;3.15;;
75417;SDS011;63997;52.112;5.420;2023-06-10T14:04:32;5.05;;;3.38;;
75417;SDS011;63997;52.112;5.420;2023-06-10T14:06:58;4.97;;;3.72;;
75417;SDS011;63997;52.112;5.420;2023-06-10T14:09:25;4.88;;;3.78;;
75417;SDS011;63997;52.112;5.420;2023-06-10T14:11:51;6.70;;;3.20;;
75417;SDS011;63997;52.112;5.420;2023-06-10T14:14:18;4.88;;;3.35;;
75417;SDS011;63997;52.112;5.420;2023-06-10T14:16:45;4.75;;;2.67;;
75417;SDS011;63997;52.112;5.420;2023-06-10T14:19:12;7.78;;;3.30;;
75417;SDS011;63997;52.112;5.420;2023-06-10T14:21:38;4.47;;;3.40;;
75417;SDS011;63997;52.112;5.420;2023-06-10T14:24:05;4.43;;;3.10;;
75417;SDS011;63997;52.112;5.420;2023-06-10T14:26:31;5.00;;;3.25;;
75417;SDS011;63997;52.112;5.420;2023-06-10T14:28:59;4.15;;;3.45;;
75417;SDS011;63997;52.112;5.420;2023-06-10T14:31:25;3.53;;;3.22;;
75417;SDS011;63997;52.112;5.420;2023-06-10T14:33:52;4.00;;;3.60;;
75417;SDS011;63997;52.112;5.420;2023-06-10T14:36:18;6.87;;;3.50;;
75417;SDS011;63997;52.112;5.420;2023-06-10T14:38:45;3.60;;;3.20;;
75417;SDS011;63997;52.112;5.420;2023-06-10T14:41:12;6.38;;;3.20;;
75417;SDS011;63997;52.112;5.420;2023-06-10T14:43:39;5.00;;;3.17;;
75417;SDS011;63997;52.112;5.420;2023-06-10T14:46:05;4.07;;;2.95;;
75417;SDS011;63997;52.112;5.420;2023-06-10T14:48:31;4.07;;;3.30;;
75417;SDS011;63997;52.112;5.420;2023-06-10T14:50:58;3.70;;;3.40;;
75417;SDS011;63997;52.112;5.420;2023-06-10T14:53:25;4.10;;;3.50;;
75417;SDS011;63997;52.112;5.420;2023-06-10T14:55:51;5.15;;;3.25;;
75417;SDS011;63997;52.112;5.420;2023-06-10T14:58:18;4.85;;;3.47;;
75417;SDS011;63997;52.112;5.420;2023-06-10T15:00:44;4.37;;;3.30;;
75417;SDS011;63997;52.112;5.420;2023-06-10T15:03:12;5.18;;;3.40;;
75417;SDS011;63997;52.112;5.420;2023-06-10T15:05:38;5.55;;;3.38;;
75417;SDS011;63997;52.112;5.420;2023-06-10T15:08:05;4.30;;;3.38;;
75417;SDS011;63997;52.112;5.420;2023-06-10T15:10:32;6.00;;;4.22;;